createdAt,value
2022-10-19T00:01:19.342Z,99.90
2022-10-19T00:03:50.673Z,99.90
2022-10-19T00:06:28.989Z,99.90
2022-10-19T00:09:00.357Z,99.90
2022-10-19T00:11:28.804Z,99.90
2022-10-19T00:13:57.626Z,99.90
2022-10-19T00:16:28.339Z,99.90
2022-10-19T00:19:01.257Z,99.90
2022-10-19T00:21:28.973Z,99.90
2022-10-19T00:23:56.360Z,99.90
2022-10-19T00:26:23.490Z,99.90
2022-10-19T00:28:53.011Z,99.90
2022-10-19T00:31:20.164Z,99.90
2022-10-19T00:33:47.834Z,99.90
2022-10-19T00:36:24.850Z,99.90
2022-10-19T00:38:53.181Z,99.90
2022-10-19T00:41:22.749Z,99.90
2022-10-19T00:44:05.339Z,99.90
2022-10-19T00:46:42.226Z,99.90
2022-10-19T00:49:23.650Z,99.90
2022-10-19T00:52:04.591Z,99.90
2022-10-19T00:54:37.292Z,99.90
2022-10-19T00:57:05.504Z,99.90
2022-10-19T00:59:33.831Z,99.90
2022-10-19T01:02:04.468Z,99.90
2022-10-19T01:04:36.036Z,99.90
2022-10-19T01:07:06.937Z,99.90
2022-10-19T01:09:34.883Z,99.90
2022-10-19T01:12:32.278Z,99.90
2022-10-19T01:15:26.273Z,99.90
2022-10-19T01:18:14.960Z,99.90
2022-10-19T01:21:06.023Z,99.90
2022-10-19T01:23:44.891Z,99.90
2022-10-19T01:26:55.611Z,99.90
2022-10-19T01:29:57.088Z,99.90
2022-10-19T01:32:59.299Z,99.90
2022-10-19T01:35:42.974Z,99.90
2022-10-19T01:38:47.157Z,99.90
2022-10-19T01:41:26.303Z,99.90
2022-10-19T01:44:08.069Z,99.90
2022-10-19T01:46:41.300Z,99.90
2022-10-19T01:49:51.670Z,99.90
2022-10-19T01:52:21.884Z,99.90
2022-10-19T01:54:53.804Z,99.90
2022-10-19T01:57:29.305Z,99.90
2022-10-19T01:59:58.230Z,99.90
2022-10-19T02:02:29.242Z,99.90
2022-10-19T02:04:57.672Z,99.90
2022-10-19T02:07:25.726Z,99.90
2022-10-19T02:09:52.834Z,99.90
2022-10-19T02:12:21.252Z,99.90
2022-10-19T02:14:54.932Z,99.90
2022-10-19T02:17:28.691Z,99.90
2022-10-19T02:19:56.970Z,99.90
2022-10-19T02:22:24.298Z,99.90
2022-10-19T02:24:51.343Z,99.90
2022-10-19T02:27:19.093Z,99.90
2022-10-19T02:29:46.369Z,99.90
2022-10-19T02:32:14.590Z,99.90
2022-10-19T02:34:42.062Z,99.90
2022-10-19T02:37:09.458Z,99.90
2022-10-19T02:39:37.545Z,99.90
2022-10-19T02:42:46.991Z,99.90
2022-10-19T02:45:37.306Z,99.90
2022-10-19T02:48:19.545Z,99.90
2022-10-19T02:50:52.012Z,99.90
2022-10-19T02:53:19.482Z,99.90
2022-10-19T02:55:49.492Z,99.90
2022-10-19T02:58:16.593Z,99.90
2022-10-19T03:00:43.672Z,99.90
2022-10-19T03:03:11.365Z,99.90
2022-10-19T03:05:38.447Z,99.90
2022-10-19T03:08:05.665Z,99.90
2022-10-19T03:10:32.890Z,99.90
2022-10-19T03:13:00.329Z,99.90
2022-10-19T03:15:29.770Z,99.90
2022-10-19T03:17:57.253Z,99.90
2022-10-19T03:20:24.467Z,99.90
2022-10-19T03:22:54.607Z,99.90
2022-10-19T03:25:21.671Z,99.90
2022-10-19T03:27:48.697Z,99.90
2022-10-19T03:30:15.891Z,99.90
2022-10-19T03:32:42.972Z,99.90
2022-10-19T03:35:10.258Z,99.90
2022-10-19T03:37:37.603Z,99.90
2022-10-19T03:40:05.691Z,99.90
2022-10-19T03:42:32.728Z,99.90
2022-10-19T03:44:59.812Z,99.90
2022-10-19T03:47:26.902Z,99.90
2022-10-19T03:49:54.028Z,99.90
2022-10-19T03:52:21.188Z,99.90
2022-10-19T03:54:51.478Z,99.90
2022-10-19T03:57:18.933Z,99.90
2022-10-19T03:59:46.104Z,99.90
2022-10-19T04:02:13.203Z,99.90
2022-10-19T04:04:40.285Z,99.90
2022-10-19T04:07:08.744Z,99.90
2022-10-19T04:09:35.802Z,99.90
2022-10-19T04:12:03.945Z,99.90
2022-10-19T04:14:32.602Z,99.90
2022-10-19T04:17:02.351Z,99.90
2022-10-19T04:19:29.620Z,99.90
2022-10-19T04:21:56.991Z,99.90
2022-10-19T04:24:24.569Z,99.90
2022-10-19T04:26:55.383Z,99.90
2022-10-19T04:29:29.501Z,99.90
2022-10-19T04:31:58.003Z,99.90
2022-10-19T04:34:25.252Z,99.90
2022-10-19T04:36:53.962Z,99.90
2022-10-19T04:39:21.044Z,99.90
2022-10-19T04:41:48.082Z,99.90
2022-10-19T04:44:15.651Z,99.90
2022-10-19T04:46:42.750Z,99.90
2022-10-19T04:49:09.822Z,99.90
2022-10-19T04:51:36.868Z,99.90
2022-10-19T04:54:04.866Z,99.90
2022-10-19T04:56:32.585Z,99.90
2022-10-19T04:59:01.046Z,99.90
2022-10-19T05:01:30.341Z,99.90
2022-10-19T05:04:00.888Z,99.90
2022-10-19T05:06:29.578Z,99.90
2022-10-19T05:08:57.512Z,99.90
2022-10-19T05:11:25.096Z,99.90
2022-10-19T05:13:52.292Z,99.90
2022-10-19T05:16:23.195Z,99.90
2022-10-19T05:18:53.153Z,99.90
2022-10-19T05:21:21.843Z,99.90
2022-10-19T05:23:53.135Z,99.90
2022-10-19T05:26:26.460Z,99.90
2022-10-19T05:28:57.418Z,99.90
2022-10-19T05:31:28.365Z,99.90
2022-10-19T05:33:56.450Z,99.90
2022-10-19T05:36:34.389Z,99.90
2022-10-19T05:39:07.795Z,99.90
2022-10-19T05:41:35.482Z,99.90
2022-10-19T05:44:04.134Z,99.90
2022-10-19T05:46:32.908Z,99.90
2022-10-19T05:49:00.583Z,99.90
2022-10-19T05:51:28.831Z,99.90
2022-10-19T05:53:56.966Z,99.90
2022-10-19T05:56:27.935Z,99.90
2022-10-19T05:58:57.304Z,99.90
2022-10-19T06:01:24.822Z,99.90
2022-10-19T06:03:54.290Z,99.90
2022-10-19T06:06:21.790Z,99.90
2022-10-19T06:08:49.715Z,99.90
2022-10-19T06:11:20.290Z,99.90
2022-10-19T06:13:50.667Z,99.90
2022-10-19T06:16:19.788Z,99.90
2022-10-19T06:18:47.602Z,99.90
2022-10-19T06:21:19.059Z,99.90
2022-10-19T06:23:55.048Z,99.90
2022-10-19T06:26:23.545Z,99.90
2022-10-19T06:28:51.507Z,99.90
2022-10-19T06:31:18.773Z,99.90
2022-10-19T06:33:49.214Z,99.90
2022-10-19T06:36:23.302Z,99.90
2022-10-19T06:38:51.060Z,99.90
2022-10-19T06:41:18.172Z,99.90
2022-10-19T06:43:49.473Z,99.90
2022-10-19T06:46:23.214Z,99.90
2022-10-19T06:49:02.296Z,99.90
2022-10-19T06:51:34.051Z,99.90
2022-10-19T06:54:01.199Z,99.90
2022-10-19T06:56:28.546Z,99.90
2022-10-19T06:58:55.899Z,99.90
2022-10-19T07:01:23.494Z,99.90
2022-10-19T07:03:52.783Z,99.90
2022-10-19T07:06:20.729Z,99.90
2022-10-19T07:08:48.707Z,99.90
2022-10-19T07:11:19.454Z,99.90
2022-10-19T07:13:46.528Z,99.90
2022-10-19T07:16:20.645Z,99.90
2022-10-19T07:18:51.170Z,99.90
2022-10-19T07:21:21.848Z,99.90
2022-10-19T07:23:49.220Z,99.90
2022-10-19T07:26:27.722Z,99.90
2022-10-19T07:28:57.266Z,99.90
2022-10-19T07:31:25.796Z,99.90
2022-10-19T07:34:02.163Z,99.90
2022-10-19T07:36:31.696Z,99.90
2022-10-19T07:38:58.944Z,99.90
2022-10-19T07:41:27.119Z,99.90
2022-10-19T07:43:55.046Z,99.90
2022-10-19T07:46:26.305Z,99.90
2022-10-19T07:48:53.685Z,99.90
2022-10-19T07:51:22.107Z,99.90
2022-10-19T07:53:49.382Z,99.90
2022-10-19T07:56:23.747Z,99.90
2022-10-19T07:58:52.884Z,99.90
2022-10-19T08:01:23.323Z,99.90
2022-10-19T08:06:41.021Z,99.90
2022-10-19T08:09:08.255Z,99.90
2022-10-19T08:11:36.203Z,99.90
2022-10-19T08:14:04.068Z,99.90
2022-10-19T08:16:40.344Z,99.90
2022-10-19T08:19:10.423Z,99.90
2022-10-19T08:21:40.087Z,99.90
2022-10-19T08:24:08.133Z,99.90
2022-10-19T08:26:38.312Z,99.90
2022-10-19T08:29:18.411Z,99.90
2022-10-19T08:31:47.819Z,99.90
2022-10-19T08:34:16.059Z,99.90
2022-10-19T08:36:43.862Z,99.90
2022-10-19T08:39:12.902Z,99.90
2022-10-19T08:42:19.625Z,99.90
2022-10-19T08:44:55.178Z,99.90
2022-10-19T08:47:40.708Z,99.90
2022-10-19T08:50:26.111Z,99.90
2022-10-19T08:53:17.918Z,99.90
2022-10-19T08:56:04.895Z,99.90
2022-10-19T08:59:04.131Z,99.90
2022-10-19T09:01:52.527Z,99.90
2022-10-19T09:04:48.219Z,99.90
2022-10-19T09:07:34.701Z,99.90
2022-10-19T09:10:14.771Z,99.90
2022-10-19T09:13:03.611Z,99.90
2022-10-19T09:15:47.085Z,99.90
2022-10-19T09:18:33.005Z,99.90
2022-10-19T09:21:30.994Z,99.90
2022-10-19T09:24:11.252Z,99.90
2022-10-19T09:26:52.143Z,99.90
2022-10-19T09:30:01.402Z,99.90
2022-10-19T09:32:35.205Z,99.90
2022-10-19T09:35:15.728Z,99.90
2022-10-19T09:37:48.523Z,99.90
2022-10-19T09:40:24.571Z,99.90
2022-10-19T09:42:57.139Z,99.90
2022-10-19T09:45:46.136Z,99.90
2022-10-19T09:48:42.453Z,99.90
2022-10-19T09:51:15.989Z,99.90
2022-10-19T09:53:55.251Z,99.90
2022-10-19T09:56:25.938Z,99.90
2022-10-19T09:58:59.656Z,99.90
2022-10-19T10:01:41.624Z,99.90
2022-10-19T10:04:19.045Z,99.90
2022-10-19T10:06:48.966Z,99.90
2022-10-19T10:09:28.806Z,99.90
2022-10-19T10:12:00.336Z,99.90
2022-10-19T10:14:35.095Z,99.90
2022-10-19T10:17:06.788Z,99.90
2022-10-19T10:19:36.180Z,99.90
2022-10-19T10:22:04.720Z,99.90
2022-10-19T10:24:34.321Z,99.90
2022-10-19T10:27:05.605Z,99.90
2022-10-19T10:29:39.081Z,99.90
2022-10-19T10:32:20.497Z,99.90
2022-10-19T10:35:16.900Z,99.90
2022-10-19T10:37:46.889Z,99.90
2022-10-19T10:40:23.750Z,99.90
2022-10-19T10:42:54.403Z,99.90
2022-10-19T10:45:43.004Z,99.90
2022-10-19T10:48:36.811Z,99.90
2022-10-19T10:51:20.004Z,99.90
2022-10-19T10:53:47.600Z,99.90
2022-10-19T10:56:33.401Z,99.90
2022-10-19T10:59:12.060Z,99.90
2022-10-19T11:02:01.287Z,99.90
2022-10-19T11:04:36.680Z,99.90
2022-10-19T11:07:21.672Z,99.90
2022-10-19T11:10:06.910Z,99.90
2022-10-19T11:12:45.328Z,99.90
2022-10-19T11:15:23.478Z,99.90
2022-10-19T11:18:00.459Z,99.90
2022-10-19T11:20:32.284Z,99.90
2022-10-19T11:23:19.091Z,99.90
2022-10-19T11:25:54.450Z,99.90
2022-10-19T11:28:58.250Z,99.90
2022-10-19T11:31:47.914Z,99.90
2022-10-19T11:34:45.743Z,99.90
2022-10-19T11:38:18.062Z,99.90
2022-10-19T11:41:18.908Z,99.90
2022-10-19T11:44:01.706Z,99.90
2022-10-19T11:46:47.036Z,99.70
2022-10-19T11:49:51.462Z,98.70
2022-10-19T11:53:01.156Z,99.00
2022-10-19T11:55:38.253Z,98.40
2022-10-19T11:58:41.169Z,97.90
2022-10-19T12:01:58.589Z,98.30
2022-10-19T12:04:54.555Z,97.90
2022-10-19T12:08:05.420Z,97.20
2022-10-19T12:10:50.599Z,95.70
2022-10-19T12:13:26.098Z,95.90
2022-10-19T12:15:54.306Z,95.00
2022-10-19T12:18:38.533Z,94.50
2022-10-19T12:21:18.666Z,94.40
2022-10-19T12:23:47.064Z,94.80
2022-10-19T12:26:21.348Z,93.60
2022-10-19T12:28:55.890Z,92.60
2022-10-19T12:31:26.216Z,91.80
2022-10-19T12:34:28.284Z,91.20
2022-10-19T12:37:36.652Z,91.90
2022-10-19T12:40:26.098Z,92.50
2022-10-19T12:43:09.608Z,92.20
2022-10-19T12:46:02.040Z,92.30
2022-10-19T12:48:29.090Z,92.00
2022-10-19T12:50:57.260Z,91.90
2022-10-19T12:53:40.944Z,91.20
2022-10-19T12:56:20.270Z,91.50
2022-10-19T12:59:03.730Z,91.00
2022-10-19T13:01:36.679Z,90.90
2022-10-19T13:04:21.327Z,90.60
2022-10-19T13:07:10.614Z,90.40
2022-10-19T13:09:48.246Z,89.50
2022-10-19T13:12:21.805Z,88.30
2022-10-19T13:14:57.387Z,87.70
2022-10-19T13:17:46.560Z,87.70
2022-10-19T13:20:13.563Z,87.40
2022-10-19T13:23:13.255Z,87.80
2022-10-19T13:25:41.706Z,87.00
2022-10-19T13:28:17.604Z,86.40
2022-10-19T13:30:44.534Z,86.80
2022-10-19T13:33:29.738Z,87.30
2022-10-19T13:36:00.018Z,86.50
2022-10-19T13:39:06.087Z,87.00
2022-10-19T13:41:39.004Z,85.40
2022-10-19T13:44:08.939Z,85.90
2022-10-19T13:47:07.030Z,84.90
2022-10-19T13:50:25.991Z,85.10
2022-10-19T13:53:01.731Z,84.40
2022-10-19T13:55:52.058Z,83.70
2022-10-19T13:59:20.083Z,84.30
2022-10-19T14:02:50.687Z,84.10
2022-10-19T14:06:06.658Z,83.80
2022-10-19T14:09:05.018Z,83.70
2022-10-19T14:11:41.659Z,83.50
2022-10-19T14:14:11.705Z,82.60
2022-10-19T14:17:03.961Z,81.60
2022-10-19T14:19:42.002Z,81.20
2022-10-19T14:22:36.046Z,79.60
2022-10-19T14:25:21.944Z,80.60
2022-10-19T14:27:54.158Z,81.00
2022-10-19T14:30:22.776Z,79.90
2022-10-19T14:32:50.463Z,79.10
2022-10-19T14:35:35.688Z,78.80
2022-10-19T14:38:06.410Z,79.50
2022-10-19T14:40:39.197Z,81.20
2022-10-19T14:43:26.665Z,82.00
2022-10-19T14:46:08.741Z,81.70
2022-10-19T14:48:48.572Z,82.60
2022-10-19T14:51:50.557Z,82.50
2022-10-19T14:54:40.664Z,83.60
2022-10-19T14:57:28.674Z,84.20
2022-10-19T15:00:11.308Z,84.40
2022-10-19T15:02:47.071Z,85.10
2022-10-19T15:05:28.189Z,85.50
2022-10-19T15:07:55.879Z,86.30
2022-10-19T15:10:30.294Z,85.40
2022-10-19T15:13:06.692Z,86.30
2022-10-19T15:15:35.942Z,85.80
2022-10-19T15:18:06.381Z,85.60
2022-10-19T15:20:49.618Z,86.40
2022-10-19T15:23:52.328Z,87.00
2022-10-19T15:26:24.478Z,87.40
2022-10-19T15:28:52.856Z,87.10
2022-10-19T15:31:28.797Z,87.30
2022-10-19T15:34:00.608Z,86.70
2022-10-19T15:36:30.456Z,86.90
2022-10-19T15:39:18.550Z,87.70
2022-10-19T15:41:52.856Z,86.90
2022-10-19T15:44:44.265Z,87.80
2022-10-19T15:47:19.149Z,87.80
2022-10-19T15:49:53.133Z,88.20
2022-10-19T15:52:43.242Z,88.30
2022-10-19T15:55:12.318Z,88.30
2022-10-19T15:57:39.967Z,88.60
2022-10-19T16:00:18.012Z,89.50
2022-10-19T16:02:45.094Z,88.80
2022-10-19T16:05:12.252Z,88.60
2022-10-19T16:07:41.996Z,89.20
2022-10-19T16:10:16.473Z,90.00
2022-10-19T16:12:44.017Z,90.30
2022-10-19T16:15:23.075Z,90.50
2022-10-19T16:17:59.589Z,90.50
2022-10-19T16:20:29.708Z,90.70
2022-10-19T16:22:58.500Z,91.00
2022-10-19T16:25:25.925Z,91.20
2022-10-19T16:27:54.437Z,91.30
2022-10-19T16:30:23.718Z,91.70
2022-10-19T16:32:51.836Z,91.80
2022-10-19T16:35:18.993Z,92.10
2022-10-19T16:40:14.011Z,92.20
2022-10-19T16:42:41.626Z,92.50
2022-10-19T16:45:10.010Z,92.80
2022-10-19T16:47:37.803Z,92.70
2022-10-19T16:50:06.597Z,92.60
2022-10-19T16:52:34.912Z,92.80
2022-10-19T16:55:02.605Z,92.90
2022-10-19T16:57:29.879Z,93.00
2022-10-19T16:59:57.753Z,93.40
2022-10-19T17:02:25.327Z,93.30
2022-10-19T17:04:52.686Z,93.60
2022-10-19T17:07:19.934Z,93.90
2022-10-19T17:09:49.713Z,94.20
2022-10-19T17:12:19.929Z,94.30
2022-10-19T17:14:47.918Z,94.50
2022-10-19T17:17:17.287Z,94.60
2022-10-19T17:19:44.916Z,94.90
2022-10-19T17:22:14.104Z,95.00
2022-10-19T17:24:41.897Z,94.60
2022-10-19T17:27:09.710Z,94.80
2022-10-19T17:29:38.964Z,95.20
2022-10-19T17:32:07.051Z,95.10
2022-10-19T17:34:35.204Z,95.20
2022-10-19T17:37:03.261Z,95.10
2022-10-19T17:39:32.346Z,95.60
2022-10-19T17:42:02.352Z,95.60
2022-10-19T17:44:31.948Z,96.00
2022-10-19T17:47:01.520Z,96.30
2022-10-19T17:49:30.410Z,96.60
2022-10-19T17:51:58.861Z,96.70
2022-10-19T17:54:27.888Z,96.40
2022-10-19T17:56:56.170Z,96.70
2022-10-19T17:59:34.585Z,97.10
2022-10-19T18:02:04.224Z,97.80
2022-10-19T18:04:33.096Z,97.90
2022-10-19T18:07:01.982Z,98.00
2022-10-19T18:09:30.078Z,97.80
2022-10-19T18:12:01.401Z,98.00
2022-10-19T18:14:32.553Z,97.90
2022-10-19T18:17:00.383Z,98.20
2022-10-19T18:19:29.190Z,98.50
2022-10-19T18:21:57.265Z,98.90
2022-10-19T18:24:26.561Z,98.80
2022-10-19T18:26:55.201Z,99.00
2022-10-19T18:29:26.258Z,99.00
2022-10-19T18:32:01.938Z,99.60
2022-10-19T18:34:34.082Z,99.90
2022-10-19T18:37:04.085Z,99.80
2022-10-19T18:39:32.046Z,99.90
2022-10-19T18:42:00.005Z,99.90
2022-10-19T18:44:30.374Z,99.80
2022-10-19T18:47:00.759Z,99.90
2022-10-19T18:49:28.606Z,99.60
2022-10-19T18:51:56.641Z,99.00
2022-10-19T18:54:28.412Z,99.20
2022-10-19T18:56:57.430Z,99.20
2022-10-19T19:01:57.023Z,99.00
2022-10-19T19:04:26.027Z,99.20
2022-10-19T19:06:54.259Z,99.30
2022-10-19T19:09:22.820Z,99.50
2022-10-19T19:11:52.046Z,99.60
2022-10-19T19:14:24.795Z,99.70
2022-10-19T19:16:52.926Z,99.80
2022-10-19T19:19:21.491Z,99.90
2022-10-19T19:21:50.553Z,99.90
2022-10-19T19:24:22.258Z,99.90
2022-10-19T19:26:54.155Z,99.90
2022-10-19T19:29:24.892Z,99.90
2022-10-19T19:31:53.843Z,99.90
2022-10-19T19:34:22.029Z,99.90
2022-10-19T19:36:51.036Z,99.90
2022-10-19T19:39:22.466Z,99.90
2022-10-19T19:41:52.800Z,99.90
2022-10-19T19:44:22.234Z,99.90
2022-10-19T19:46:50.440Z,99.90
2022-10-19T19:49:18.849Z,99.90
2022-10-19T19:51:47.078Z,99.90
2022-10-19T19:54:15.269Z,99.90
2022-10-19T19:56:43.407Z,99.90
2022-10-19T19:59:13.361Z,99.90
2022-10-19T20:01:42.154Z,99.90
2022-10-19T20:04:11.513Z,99.90
2022-10-19T20:06:41.200Z,99.90
2022-10-19T20:09:10.789Z,99.90
2022-10-19T20:11:42.784Z,99.90
2022-10-19T20:14:12.964Z,99.90
2022-10-19T20:16:42.806Z,99.90
2022-10-19T20:19:14.882Z,99.90
2022-10-19T20:21:43.593Z,99.90
2022-10-19T20:24:12.057Z,99.90
2022-10-19T20:26:40.591Z,99.90
2022-10-19T20:29:08.477Z,99.90
2022-10-19T20:31:40.112Z,99.90
2022-10-19T20:34:11.221Z,99.90
2022-10-19T20:36:39.354Z,99.90
2022-10-19T20:39:06.772Z,99.90
2022-10-19T20:41:34.834Z,99.90
2022-10-19T20:44:03.026Z,99.90
2022-10-19T20:46:32.179Z,99.90
2022-10-19T20:49:01.995Z,99.90
2022-10-19T20:51:37.187Z,99.90
2022-10-19T20:54:10.993Z,99.90
2022-10-19T20:56:41.296Z,99.90
2022-10-19T20:59:14.986Z,99.90
2022-10-19T21:01:44.477Z,99.90
2022-10-19T21:04:14.298Z,99.90
2022-10-19T21:06:48.649Z,99.90
2022-10-19T21:09:20.649Z,99.90
2022-10-19T21:11:53.035Z,99.90
2022-10-19T21:14:27.005Z,99.90
2022-10-19T21:16:57.418Z,99.90
2022-10-19T21:19:27.265Z,99.90
2022-10-19T21:22:03.990Z,99.90
2022-10-19T21:24:35.345Z,99.90
2022-10-19T21:27:07.504Z,99.90
2022-10-19T21:29:35.964Z,99.90
2022-10-19T21:32:03.369Z,99.90
2022-10-19T21:34:31.890Z,99.90
2022-10-19T21:36:59.162Z,99.90
2022-10-19T21:39:26.198Z,99.90
2022-10-19T21:41:53.581Z,99.90
2022-10-19T21:44:23.097Z,99.90
2022-10-19T21:46:50.459Z,99.90
2022-10-19T21:49:17.704Z,99.90
2022-10-19T21:51:51.010Z,99.90
2022-10-19T21:54:22.029Z,99.90
2022-10-19T21:56:49.530Z,99.90
2022-10-19T21:59:17.324Z,99.90
2022-10-19T22:01:44.846Z,99.90
2022-10-19T22:04:18.024Z,99.90
2022-10-19T22:06:45.477Z,99.90
2022-10-19T22:09:20.140Z,99.90
2022-10-19T22:11:47.853Z,99.90
2022-10-19T22:14:16.990Z,99.90
2022-10-19T22:16:44.673Z,99.90
2022-10-19T22:19:12.742Z,99.90
2022-10-19T22:21:40.664Z,99.90
2022-10-19T22:24:12.762Z,99.90
2022-10-19T22:26:44.342Z,99.90
2022-10-19T22:29:11.781Z,99.90
2022-10-19T22:31:39.015Z,99.90
2022-10-19T22:34:14.027Z,99.90
2022-10-19T22:36:41.446Z,99.90
2022-10-19T22:39:09.300Z,99.90
2022-10-19T22:41:36.437Z,99.90
2022-10-19T22:44:03.538Z,99.90
2022-10-19T22:46:30.654Z,99.90
2022-10-19T22:48:58.141Z,99.90
2022-10-19T22:51:25.415Z,99.90
2022-10-19T22:53:52.511Z,99.90
2022-10-19T22:56:19.739Z,99.90
2022-10-19T22:58:46.802Z,99.90
2022-10-19T23:01:15.870Z,99.90
2022-10-19T23:03:44.046Z,99.90
2022-10-19T23:06:14.213Z,99.90
2022-10-19T23:08:42.624Z,99.90
2022-10-19T23:11:09.791Z,99.90
2022-10-19T23:13:37.261Z,99.90
2022-10-19T23:16:04.611Z,99.90
2022-10-19T23:18:36.297Z,99.90
2022-10-19T23:21:11.318Z,99.90
2022-10-19T23:23:39.377Z,99.90
2022-10-19T23:26:15.525Z,99.90
2022-10-19T23:28:45.302Z,99.90
2022-10-19T23:31:26.032Z,99.90
2022-10-19T23:33:54.280Z,99.90
2022-10-19T23:36:24.772Z,99.90
2022-10-19T23:38:53.129Z,99.90
2022-10-19T23:41:21.127Z,99.90
2022-10-19T23:43:48.513Z,99.90
2022-10-19T23:46:15.938Z,99.90
2022-10-19T23:48:43.306Z,99.90
2022-10-19T23:51:17.438Z,99.90
2022-10-19T23:53:47.617Z,99.90
2022-10-19T23:56:17.888Z,99.90
2022-10-19T23:58:45.961Z,99.90
